createdAt,value
2023-03-26T00:03:30.968Z,19.71
2023-03-26T00:07:30.948Z,19.75
2023-03-26T00:11:31.014Z,19.76
2023-03-26T00:15:31.024Z,19.88
2023-03-26T00:19:31.033Z,19.85
2023-03-26T00:23:31.094Z,19.96
2023-03-26T00:27:31.104Z,19.99
2023-03-26T00:31:31.189Z,19.95
2023-03-26T00:35:31.251Z,19.96
2023-03-26T00:39:31.247Z,19.97
2023-03-26T00:43:31.334Z,19.95
2023-03-26T00:47:31.398Z,19.91
2023-03-26T00:51:31.440Z,19.94
2023-03-26T00:55:31.520Z,19.91
2023-03-26T00:59:31.589Z,19.98
2023-03-26T01:03:31.722Z,20.04
2023-03-26T01:07:31.668Z,20.05
2023-03-26T01:11:31.689Z,20.07
2023-03-26T01:15:31.774Z,20.04
2023-03-26T01:19:31.737Z,20.08
2023-03-26T01:23:31.752Z,20.07
2023-03-26T01:27:31.761Z,20.17
2023-03-26T01:31:31.761Z,20.16
2023-03-26T01:35:31.838Z,20.19
2023-03-26T01:39:31.830Z,20.20
2023-03-26T01:43:31.844Z,20.26
2023-03-26T01:47:31.879Z,20.19
2023-03-26T01:51:31.824Z,20.20
2023-03-26T01:55:31.812Z,20.16
2023-03-26T01:59:31.821Z,20.19
2023-03-26T02:03:31.920Z,20.16
2023-03-26T02:07:31.848Z,20.13
2023-03-26T02:11:35.444Z,20.10
2023-03-26T04:11:31.141Z,19.98
2023-03-26T04:15:31.156Z,20.02
2023-03-26T04:19:31.133Z,19.98
2023-03-26T04:23:31.164Z,20.02
2023-03-26T04:27:31.168Z,20.05
2023-03-26T04:31:31.231Z,20.07
2023-03-26T04:35:31.161Z,20.10
2023-03-26T04:39:31.152Z,20.01
2023-03-26T04:43:31.211Z,19.99
2023-03-26T04:47:31.154Z,19.95
2023-03-26T04:51:31.149Z,19.95
2023-03-26T04:55:31.152Z,19.92
2023-03-26T04:59:31.176Z,19.94
2023-03-26T05:03:31.186Z,19.86
2023-03-26T05:07:31.192Z,19.89
2023-03-26T05:11:31.205Z,19.83
2023-03-26T05:15:31.213Z,19.82
2023-03-26T05:19:31.224Z,19.76
2023-03-26T05:23:31.221Z,19.74
2023-03-26T05:27:31.235Z,19.74
2023-03-26T05:31:31.293Z,19.70
2023-03-26T05:35:31.376Z,19.67
2023-03-26T05:39:31.291Z,19.69
2023-03-26T05:43:31.360Z,19.63
2023-03-26T05:47:31.377Z,19.56
2023-03-26T05:51:31.358Z,19.57
2023-03-26T05:55:31.389Z,19.49
2023-03-26T05:59:31.475Z,19.53
2023-03-26T06:03:31.723Z,19.47
2023-03-26T06:07:31.626Z,19.43
2023-03-26T06:11:31.768Z,19.37
2023-03-26T06:15:31.896Z,19.35
2023-03-26T06:19:31.975Z,19.28
2023-03-26T06:23:32.138Z,19.24
2023-03-26T06:27:32.269Z,19.19
2023-03-26T06:31:32.493Z,19.15
2023-03-26T06:35:32.522Z,19.02
2023-03-26T06:39:32.397Z,18.86
2023-03-26T06:43:32.377Z,18.84
2023-03-26T06:47:32.368Z,18.73
2023-03-26T06:51:32.309Z,18.67
2023-03-26T06:55:32.266Z,18.75
2023-03-26T06:59:32.243Z,18.76
2023-03-26T07:03:32.213Z,18.80
2023-03-26T07:07:32.160Z,18.76
2023-03-26T07:11:32.131Z,18.33
2023-03-26T07:15:32.078Z,17.90
2023-03-26T07:19:32.069Z,17.67
2023-03-26T07:23:32.065Z,17.81
2023-03-26T07:27:32.272Z,17.93
2023-03-26T07:31:32.325Z,18.26
2023-03-26T07:35:32.634Z,18.49
2023-03-26T07:39:32.368Z,18.66
2023-03-26T07:43:32.462Z,18.61
2023-03-26T07:47:32.557Z,18.13
2023-03-26T07:51:32.552Z,17.85
2023-03-26T07:55:32.726Z,17.77
2023-03-26T07:59:32.684Z,17.81
2023-03-26T08:03:32.814Z,17.90
2023-03-26T08:07:32.609Z,17.83
2023-03-26T08:11:32.576Z,17.88
2023-03-26T08:15:32.634Z,18.04
2023-03-26T08:19:32.516Z,18.16
2023-03-26T08:23:32.567Z,17.78
2023-03-26T08:27:32.435Z,17.67
2023-03-26T08:31:32.447Z,17.54
2023-03-26T08:35:32.498Z,17.55
2023-03-26T08:39:32.336Z,17.51
2023-03-26T08:43:32.327Z,17.57
2023-03-26T08:47:32.326Z,17.68
2023-03-26T08:51:32.507Z,17.74
2023-03-26T08:55:32.729Z,17.72
2023-03-26T08:59:32.959Z,17.79
2023-03-26T09:03:32.916Z,17.94
2023-03-26T09:07:32.871Z,18.11
2023-03-26T09:11:32.811Z,18.25
2023-03-26T09:15:32.769Z,18.40
2023-03-26T09:19:32.784Z,18.46
2023-03-26T09:23:32.697Z,18.57
2023-03-26T09:27:32.683Z,18.61
2023-03-26T09:31:32.704Z,18.67
2023-03-26T09:35:32.697Z,18.74
2023-03-26T09:39:32.565Z,18.66
2023-03-26T09:43:32.531Z,18.60
2023-03-26T09:47:32.535Z,18.48
2023-03-26T09:51:32.466Z,18.40
2023-03-26T09:55:32.450Z,18.42
2023-03-26T09:59:32.376Z,18.42
2023-03-26T10:03:32.354Z,18.45
2023-03-26T10:07:32.313Z,18.42
2023-03-26T10:11:32.299Z,18.46
2023-03-26T10:15:32.253Z,18.48
2023-03-26T10:19:32.195Z,18.55
2023-03-26T10:23:32.272Z,18.51
2023-03-26T10:27:32.335Z,18.62
2023-03-26T10:31:32.330Z,18.66
2023-03-26T10:35:32.420Z,18.68
2023-03-26T10:39:36.251Z,18.75
2023-03-26T10:43:33.322Z,18.86
2023-03-26T10:47:32.341Z,18.90
2023-03-26T10:51:32.246Z,18.90
2023-03-26T10:55:32.208Z,18.97
2023-03-26T10:59:32.179Z,18.93
2023-03-26T11:03:32.137Z,18.88
2023-03-26T11:07:32.099Z,18.88
2023-03-26T11:11:32.091Z,18.84
2023-03-26T11:15:32.085Z,18.87
2023-03-26T11:19:32.019Z,18.86
2023-03-26T11:23:31.983Z,18.84
2023-03-26T11:27:31.934Z,18.82
2023-03-26T11:31:31.958Z,18.84
2023-03-26T11:35:40.462Z,18.84
2023-03-26T11:39:32.843Z,18.89
2023-03-26T11:43:31.825Z,18.84
2023-03-26T11:47:31.789Z,18.86
2023-03-26T11:51:31.738Z,18.86
2023-03-26T11:55:31.680Z,18.91
2023-03-26T11:59:32.740Z,18.95
2023-03-26T12:03:31.612Z,18.96
2023-03-26T12:07:31.588Z,19.02
2023-03-26T12:11:33.890Z,19.07
2023-03-26T12:15:31.512Z,19.11
2023-03-26T12:19:31.477Z,19.15
2023-03-26T12:23:31.473Z,19.18
2023-03-26T12:27:31.408Z,19.24
2023-03-26T12:31:31.413Z,19.31
2023-03-26T12:35:31.340Z,19.38
2023-03-26T12:40:07.350Z,19.42
2023-03-26T12:44:53.907Z,19.55
2023-03-26T12:48:00.250Z,19.72
2023-03-26T12:51:32.196Z,19.72
2023-03-26T12:55:31.159Z,19.90
2023-03-26T12:59:31.117Z,20.10
2023-03-26T13:03:31.180Z,20.26
2023-03-26T13:07:31.077Z,20.21
2023-03-26T13:11:31.033Z,20.42
2023-03-26T13:15:30.976Z,20.55
2023-03-26T13:19:30.960Z,20.62
2023-03-26T13:23:30.922Z,20.66
2023-03-26T13:27:30.885Z,20.69
2023-03-26T13:31:31.051Z,20.79
2023-03-26T13:35:31.170Z,20.82
2023-03-26T13:39:31.361Z,20.76
2023-03-26T13:43:31.382Z,20.89
2023-03-26T13:47:31.542Z,20.85
2023-03-26T13:51:31.638Z,20.89
2023-03-26T13:55:31.802Z,20.95
2023-03-26T13:59:31.912Z,20.91
2023-03-26T14:03:32.142Z,20.98
2023-03-26T14:07:32.205Z,20.92
2023-03-26T14:11:32.344Z,21.05
2023-03-26T14:15:32.506Z,20.98
2023-03-26T14:19:32.637Z,21.03
2023-03-26T14:23:32.815Z,21.06
2023-03-26T14:27:32.964Z,21.17
2023-03-26T14:31:33.172Z,21.25
2023-03-26T14:35:33.265Z,21.30
2023-03-26T14:39:33.423Z,21.35
2023-03-26T14:43:33.593Z,21.47
2023-03-26T14:47:33.964Z,21.54
2023-03-26T14:51:33.989Z,21.57
2023-03-26T14:55:34.148Z,21.69
2023-03-26T14:59:34.344Z,21.75
2023-03-26T15:03:34.543Z,21.88
2023-03-26T15:07:34.679Z,21.84
2023-03-26T15:11:34.886Z,22.11
2023-03-26T15:15:35.092Z,22.18
2023-03-26T15:19:35.257Z,22.25
2023-03-26T15:23:35.441Z,22.27
2023-03-26T15:27:35.675Z,22.13
2023-03-26T15:31:35.881Z,22.26
2023-03-26T15:35:36.070Z,22.26
2023-03-26T15:39:36.248Z,22.35
2023-03-26T15:43:36.473Z,22.41
2023-03-26T15:47:36.721Z,22.48
2023-03-26T15:51:46.583Z,22.54
2023-03-26T15:55:37.852Z,22.58
2023-03-26T15:59:36.818Z,22.61
2023-03-26T16:03:36.916Z,22.67
2023-03-26T16:07:37.116Z,22.66
2023-03-26T16:11:37.103Z,22.71
2023-03-26T16:15:37.105Z,22.67
2023-03-26T16:19:37.026Z,22.73
2023-03-26T16:23:47.201Z,22.84
2023-03-26T16:27:38.135Z,22.98
2023-03-26T16:31:39.241Z,23.03
2023-03-26T16:35:37.600Z,22.98
2023-03-26T16:39:37.507Z,23.09
2023-03-26T16:43:37.472Z,23.06
2023-03-26T16:47:37.459Z,23.13
2023-03-26T16:51:37.408Z,23.18
2023-03-26T16:55:37.400Z,23.20
2023-03-26T16:59:37.325Z,23.14
2023-03-26T17:03:37.455Z,23.22
2023-03-26T17:07:37.243Z,23.22
2023-03-26T17:11:37.270Z,23.29
2023-03-26T17:15:37.221Z,23.29
2023-03-26T17:19:37.229Z,23.30
2023-03-26T17:23:39.659Z,23.32
2023-03-26T17:27:37.123Z,23.34
2023-03-26T17:31:37.150Z,23.42
2023-03-26T17:35:37.098Z,23.44
2023-03-26T17:39:37.000Z,23.38
2023-03-26T17:43:36.961Z,23.49
2023-03-26T17:47:36.948Z,23.45
2023-03-26T17:51:36.898Z,23.46
2023-03-26T17:55:36.877Z,23.53
2023-03-26T17:59:38.784Z,23.50
2023-03-26T18:03:36.829Z,23.45
2023-03-26T18:07:36.756Z,23.48
2023-03-26T18:11:36.700Z,23.52
2023-03-26T18:15:36.687Z,23.53
2023-03-26T18:19:36.635Z,23.49
2023-03-26T18:23:36.603Z,23.58
2023-03-26T18:27:36.570Z,23.47
2023-03-26T18:31:36.548Z,23.45
2023-03-26T18:35:36.523Z,23.39
2023-03-26T18:39:36.445Z,23.45
2023-03-26T18:43:44.475Z,23.50
2023-03-26T18:47:37.391Z,23.49
2023-03-26T18:51:43.202Z,23.57
2023-03-26T18:55:37.303Z,23.57
2023-03-26T18:59:36.326Z,23.50
2023-03-26T19:03:36.289Z,23.48
2023-03-26T19:07:36.176Z,23.43
2023-03-26T19:11:36.307Z,23.30
2023-03-26T19:15:36.450Z,23.31
2023-03-26T19:19:36.603Z,23.27
2023-03-26T19:23:36.753Z,23.27
2023-03-26T19:27:36.962Z,23.32
2023-03-26T19:31:37.189Z,23.35
2023-03-26T19:35:37.246Z,23.40
2023-03-26T19:39:37.811Z,23.35
2023-03-26T19:43:37.525Z,23.26
2023-03-26T19:47:48.466Z,23.19
2023-03-26T19:51:38.657Z,23.17
2023-03-26T19:55:37.599Z,23.14
2023-03-26T19:59:37.735Z,23.01
2023-03-26T20:03:38.234Z,23.01
2023-03-26T20:07:38.067Z,22.89
2023-03-26T20:11:38.182Z,22.82
2023-03-26T20:15:38.325Z,22.76
2023-03-26T20:19:38.428Z,22.66
2023-03-26T20:23:38.541Z,22.56
2023-03-26T20:27:38.650Z,22.55
2023-03-26T20:31:38.770Z,22.50
2023-03-26T20:35:38.920Z,22.50
2023-03-26T20:39:39.073Z,22.42
2023-03-26T20:43:39.196Z,22.30
2023-03-26T20:47:39.322Z,22.25
2023-03-26T20:51:39.451Z,22.22
2023-03-26T20:55:41.134Z,22.11
2023-03-26T20:59:39.801Z,22.17
2023-03-26T21:03:39.793Z,22.06
2023-03-26T21:07:39.919Z,22.05
2023-03-26T21:11:40.024Z,22.00
2023-03-26T21:15:40.186Z,21.89
2023-03-26T21:19:40.267Z,21.87
2023-03-26T21:23:40.309Z,21.76
2023-03-26T21:27:40.408Z,21.77
2023-03-26T21:31:40.530Z,21.62
2023-03-26T21:35:40.630Z,21.64
2023-03-26T21:39:40.551Z,21.58
2023-03-26T21:43:40.635Z,21.62
2023-03-26T21:47:40.734Z,21.59
2023-03-26T21:51:40.708Z,21.53
2023-03-26T21:55:40.749Z,21.59
2023-03-26T21:59:40.749Z,21.53
2023-03-26T22:03:40.797Z,21.48
2023-03-26T22:07:40.798Z,21.46
2023-03-26T22:11:40.799Z,21.41
2023-03-26T22:15:40.814Z,21.40
2023-03-26T22:19:40.793Z,21.26
2023-03-26T22:23:40.850Z,21.24
2023-03-26T22:27:44.163Z,21.14
2023-03-26T22:31:40.911Z,21.15
2023-03-26T22:35:40.825Z,21.04
2023-03-26T22:39:40.757Z,20.98
2023-03-26T22:43:40.704Z,21.05
2023-03-26T22:47:40.675Z,21.02
2023-03-26T22:51:40.619Z,20.98
2023-03-26T22:55:40.585Z,20.97
2023-03-26T22:59:40.541Z,20.99
2023-03-26T23:03:40.522Z,20.92
2023-03-26T23:07:40.475Z,20.98
2023-03-26T23:11:40.430Z,20.92
2023-03-26T23:15:40.398Z,20.89
2023-03-26T23:19:40.369Z,20.89
2023-03-26T23:23:40.320Z,20.83
2023-03-26T23:27:40.329Z,20.83
2023-03-26T23:31:40.304Z,20.67
2023-03-26T23:35:40.209Z,20.77
2023-03-26T23:39:40.191Z,20.75
2023-03-26T23:43:40.147Z,20.79
2023-03-26T23:47:41.132Z,20.77
2023-03-26T23:51:40.093Z,20.72
2023-03-26T23:55:40.046Z,20.66
2023-03-26T23:59:39.985Z,20.60
